sensor_id;sensor_type;location;lat;lon;timestamp;P1;durP1;ratioP1;P2;durP2;ratioP2
52136;SDS011;69622;49.570;10.986;2024-03-02T00:01:39;19.13;;;10.07;;
52136;SDS011;69622;49.570;10.986;2024-03-02T00:04:40;18.98;;;9.57;;
52136;SDS011;69622;49.570;10.986;2024-03-02T00:07:46;19.65;;;9.77;;
52136;SDS011;69622;49.570;10.986;2024-03-02T00:10:59;19.60;;;9.43;;
52136;SDS011;69622;49.570;10.986;2024-03-02T00:14:01;21.23;;;10.32;;
52136;SDS011;69622;49.570;10.986;2024-03-02T00:17:03;20.90;;;10.05;;
52136;SDS011;69622;49.570;10.986;2024-03-02T00:20:04;22.33;;;10.10;;
52136;SDS011;69622;49.570;10.986;2024-03-02T00:23:10;25.92;;;11.68;;
52136;SDS011;69622;49.570;10.986;2024-03-02T00:26:16;26.88;;;10.85;;
52136;SDS011;69622;49.570;10.986;2024-03-02T00:29:17;19.90;;;10.60;;
52136;SDS011;69622;49.570;10.986;2024-03-02T00:32:21;24.70;;;10.65;;
52136;SDS011;69622;49.570;10.986;2024-03-02T00:35:22;22.42;;;10.38;;
52136;SDS011;69622;49.570;10.986;2024-03-02T00:38:24;26.15;;;11.80;;
52136;SDS011;69622;49.570;10.986;2024-03-02T00:41:29;26.83;;;12.70;;
52136;SDS011;69622;49.570;10.986;2024-03-02T00:44:32;21.45;;;10.35;;
52136;SDS011;69622;49.570;10.986;2024-03-02T00:47:40;24.60;;;11.55;;
52136;SDS011;69622;49.570;10.986;2024-03-02T00:50:41;26.10;;;10.93;;
52136;SDS011;69622;49.570;10.986;2024-03-02T00:53:43;24.45;;;11.45;;
52136;SDS011;69622;49.570;10.986;2024-03-02T00:56:45;23.73;;;11.43;;
52136;SDS011;69622;49.570;10.986;2024-03-02T00:59:48;23.98;;;12.75;;
52136;SDS011;69622;49.570;10.986;2024-03-02T01:02:49;30.00;;;12.65;;
52136;SDS011;69622;49.570;10.986;2024-03-02T01:05:51;30.20;;;13.02;;
52136;SDS011;69622;49.570;10.986;2024-03-02T01:08:53;25.00;;;12.23;;
52136;SDS011;69622;49.570;10.986;2024-03-02T01:11:54;25.30;;;12.15;;
52136;SDS011;69622;49.570;10.986;2024-03-02T01:14:56;26.00;;;11.65;;
52136;SDS011;69622;49.570;10.986;2024-03-02T01:17:57;21.30;;;10.57;;
52136;SDS011;69622;49.570;10.986;2024-03-02T01:20:59;29.40;;;12.77;;
52136;SDS011;69622;49.570;10.986;2024-03-02T01:24:00;23.58;;;10.77;;
52136;SDS011;69622;49.570;10.986;2024-03-02T01:27:02;25.10;;;11.02;;
52136;SDS011;69622;49.570;10.986;2024-03-02T01:30:03;22.63;;;10.40;;
52136;SDS011;69622;49.570;10.986;2024-03-02T01:33:05;24.88;;;11.75;;
52136;SDS011;69622;49.570;10.986;2024-03-02T01:36:07;27.27;;;11.25;;
52136;SDS011;69622;49.570;10.986;2024-03-02T01:39:09;25.75;;;12.40;;
52136;SDS011;69622;49.570;10.986;2024-03-02T01:42:11;23.17;;;11.82;;
52136;SDS011;69622;49.570;10.986;2024-03-02T01:45:13;27.55;;;13.07;;
52136;SDS011;69622;49.570;10.986;2024-03-02T01:48:14;27.42;;;13.25;;
52136;SDS011;69622;49.570;10.986;2024-03-02T01:51:16;20.98;;;11.02;;
52136;SDS011;69622;49.570;10.986;2024-03-02T01:54:17;23.10;;;10.88;;
52136;SDS011;69622;49.570;10.986;2024-03-02T01:57:19;24.75;;;11.68;;
52136;SDS011;69622;49.570;10.986;2024-03-02T02:00:21;28.40;;;11.52;;
52136;SDS011;69622;49.570;10.986;2024-03-02T02:03:23;23.42;;;11.57;;
52136;SDS011;69622;49.570;10.986;2024-03-02T02:06:25;26.73;;;11.43;;
52136;SDS011;69622;49.570;10.986;2024-03-02T02:09:27;25.33;;;11.57;;
52136;SDS011;69622;49.570;10.986;2024-03-02T02:12:29;29.55;;;12.05;;
52136;SDS011;69622;49.570;10.986;2024-03-02T02:15:30;30.73;;;13.02;;
52136;SDS011;69622;49.570;10.986;2024-03-02T02:18:32;26.45;;;11.73;;
52136;SDS011;69622;49.570;10.986;2024-03-02T02:21:34;20.65;;;10.52;;
52136;SDS011;69622;49.570;10.986;2024-03-02T02:24:35;24.50;;;12.38;;
52136;SDS011;69622;49.570;10.986;2024-03-02T02:27:37;23.25;;;11.82;;
52136;SDS011;69622;49.570;10.986;2024-03-02T02:30:38;28.33;;;11.90;;
52136;SDS011;69622;49.570;10.986;2024-03-02T02:33:40;28.60;;;13.60;;
52136;SDS011;69622;49.570;10.986;2024-03-02T02:36:42;30.17;;;13.77;;
52136;SDS011;69622;49.570;10.986;2024-03-02T02:39:44;27.20;;;13.30;;
52136;SDS011;69622;49.570;10.986;2024-03-02T02:42:47;29.88;;;13.00;;
52136;SDS011;69622;49.570;10.986;2024-03-02T02:45:49;26.33;;;11.88;;
52136;SDS011;69622;49.570;10.986;2024-03-02T02:48:51;27.92;;;11.45;;
52136;SDS011;69622;49.570;10.986;2024-03-02T02:51:54;28.48;;;12.13;;
52136;SDS011;69622;49.570;10.986;2024-03-02T02:54:56;22.65;;;10.85;;
52136;SDS011;69622;49.570;10.986;2024-03-02T02:57:57;40.75;;;15.48;;
52136;SDS011;69622;49.570;10.986;2024-03-02T03:00:59;25.05;;;12.93;;
52136;SDS011;69622;49.570;10.986;2024-03-02T03:04:00;29.48;;;13.30;;
52136;SDS011;69622;49.570;10.986;2024-03-02T03:07:02;26.98;;;12.85;;
52136;SDS011;69622;49.570;10.986;2024-03-02T03:10:03;30.08;;;12.48;;
52136;SDS011;69622;49.570;10.986;2024-03-02T03:13:05;29.27;;;11.73;;
52136;SDS011;69622;49.570;10.986;2024-03-02T03:16:09;28.73;;;11.40;;
52136;SDS011;69622;49.570;10.986;2024-03-02T03:19:10;27.17;;;11.70;;
52136;SDS011;69622;49.570;10.986;2024-03-02T03:22:12;30.00;;;13.05;;
52136;SDS011;69622;49.570;10.986;2024-03-02T03:25:14;24.70;;;12.38;;
52136;SDS011;69622;49.570;10.986;2024-03-02T03:28:15;31.00;;;12.60;;
52136;SDS011;69622;49.570;10.986;2024-03-02T03:31:17;25.42;;;12.13;;
52136;SDS011;69622;49.570;10.986;2024-03-02T03:34:18;24.50;;;11.25;;
52136;SDS011;69622;49.570;10.986;2024-03-02T03:37:20;28.13;;;12.35;;
52136;SDS011;69622;49.570;10.986;2024-03-02T03:40:21;29.20;;;12.15;;
52136;SDS011;69622;49.570;10.986;2024-03-02T03:43:23;29.58;;;12.52;;
52136;SDS011;69622;49.570;10.986;2024-03-02T03:46:24;26.70;;;11.45;;
52136;SDS011;69622;49.570;10.986;2024-03-02T03:49:26;25.25;;;13.07;;
52136;SDS011;69622;49.570;10.986;2024-03-02T03:52:27;29.50;;;12.32;;
52136;SDS011;69622;49.570;10.986;2024-03-02T03:55:28;22.58;;;11.98;;
52136;SDS011;69622;49.570;10.986;2024-03-02T03:58:30;28.70;;;11.38;;
52136;SDS011;69622;49.570;10.986;2024-03-02T04:01:31;23.48;;;11.68;;
52136;SDS011;69622;49.570;10.986;2024-03-02T04:04:33;22.00;;;12.20;;
52136;SDS011;69622;49.570;10.986;2024-03-02T04:07:35;28.65;;;12.10;;
52136;SDS011;69622;49.570;10.986;2024-03-02T04:10:44;27.38;;;11.90;;
52136;SDS011;69622;49.570;10.986;2024-03-02T04:13:46;25.30;;;11.52;;
52136;SDS011;69622;49.570;10.986;2024-03-02T04:16:47;23.88;;;11.27;;
52136;SDS011;69622;49.570;10.986;2024-03-02T04:19:49;20.52;;;10.63;;
52136;SDS011;69622;49.570;10.986;2024-03-02T04:22:51;21.70;;;10.02;;
52136;SDS011;69622;49.570;10.986;2024-03-02T04:25:52;27.77;;;11.10;;
52136;SDS011;69622;49.570;10.986;2024-03-02T04:28:54;23.40;;;9.95;;
52136;SDS011;69622;49.570;10.986;2024-03-02T04:31:55;27.20;;;11.60;;
52136;SDS011;69622;49.570;10.986;2024-03-02T04:34:57;22.17;;;11.13;;
52136;SDS011;69622;49.570;10.986;2024-03-02T04:37:58;27.05;;;11.57;;
52136;SDS011;69622;49.570;10.986;2024-03-02T04:41:00;25.05;;;11.70;;
52136;SDS011;69622;49.570;10.986;2024-03-02T04:44:01;24.05;;;11.50;;
52136;SDS011;69622;49.570;10.986;2024-03-02T04:47:03;25.85;;;10.65;;
52136;SDS011;69622;49.570;10.986;2024-03-02T04:50:05;26.98;;;11.32;;
52136;SDS011;69622;49.570;10.986;2024-03-02T04:53:08;22.52;;;9.85;;
52136;SDS011;69622;49.570;10.986;2024-03-02T04:56:10;27.17;;;10.82;;
52136;SDS011;69622;49.570;10.986;2024-03-02T04:59:23;16.52;;;9.48;;
52136;SDS011;69622;49.570;10.986;2024-03-02T05:02:25;24.35;;;9.95;;
52136;SDS011;69622;49.570;10.986;2024-03-02T05:05:26;24.27;;;11.18;;
52136;SDS011;69622;49.570;10.986;2024-03-02T05:08:28;23.67;;;11.05;;
52136;SDS011;69622;49.570;10.986;2024-03-02T05:11:29;20.58;;;9.68;;
52136;SDS011;69622;49.570;10.986;2024-03-02T05:14:39;22.50;;;9.70;;
52136;SDS011;69622;49.570;10.986;2024-03-02T05:17:41;20.42;;;9.57;;
52136;SDS011;69622;49.570;10.986;2024-03-02T05:23:48;17.00;;;8.90;;
52136;SDS011;69622;49.570;10.986;2024-03-02T05:26:49;20.95;;;9.18;;
52136;SDS011;69622;49.570;10.986;2024-03-02T05:29:50;22.95;;;9.45;;
52136;SDS011;69622;49.570;10.986;2024-03-02T05:32:52;19.77;;;9.32;;
52136;SDS011;69622;49.570;10.986;2024-03-02T05:35:53;23.00;;;8.75;;
52136;SDS011;69622;49.570;10.986;2024-03-02T05:38:55;21.20;;;8.50;;
52136;SDS011;69622;49.570;10.986;2024-03-02T05:41:56;22.20;;;8.73;;
52136;SDS011;69622;49.570;10.986;2024-03-02T05:44:58;21.80;;;9.00;;
52136;SDS011;69622;49.570;10.986;2024-03-02T05:47:59;20.05;;;9.95;;
52136;SDS011;69622;49.570;10.986;2024-03-02T05:51:01;18.25;;;8.65;;
52136;SDS011;69622;49.570;10.986;2024-03-02T05:54:03;21.77;;;9.15;;
52136;SDS011;69622;49.570;10.986;2024-03-02T05:57:04;19.08;;;8.88;;
52136;SDS011;69622;49.570;10.986;2024-03-02T06:00:27;20.98;;;8.05;;
52136;SDS011;69622;49.570;10.986;2024-03-02T06:03:29;20.52;;;8.88;;
52136;SDS011;69622;49.570;10.986;2024-03-02T06:06:30;23.98;;;9.85;;
52136;SDS011;69622;49.570;10.986;2024-03-02T06:09:33;22.63;;;9.38;;
52136;SDS011;69622;49.570;10.986;2024-03-02T06:12:35;18.73;;;8.98;;
52136;SDS011;69622;49.570;10.986;2024-03-02T06:15:36;23.52;;;9.95;;
52136;SDS011;69622;49.570;10.986;2024-03-02T06:18:38;18.52;;;8.60;;
52136;SDS011;69622;49.570;10.986;2024-03-02T06:21:40;19.45;;;8.77;;
52136;SDS011;69622;49.570;10.986;2024-03-02T06:24:42;18.33;;;9.07;;
52136;SDS011;69622;49.570;10.986;2024-03-02T06:27:43;19.00;;;8.45;;
52136;SDS011;69622;49.570;10.986;2024-03-02T06:30:45;24.25;;;10.50;;
52136;SDS011;69622;49.570;10.986;2024-03-02T06:33:46;19.42;;;9.32;;
52136;SDS011;69622;49.570;10.986;2024-03-02T06:36:48;18.92;;;8.15;;
52136;SDS011;69622;49.570;10.986;2024-03-02T06:39:49;19.88;;;8.90;;
52136;SDS011;69622;49.570;10.986;2024-03-02T06:42:51;17.40;;;8.15;;
52136;SDS011;69622;49.570;10.986;2024-03-02T06:45:52;21.23;;;8.95;;
52136;SDS011;69622;49.570;10.986;2024-03-02T06:48:54;20.35;;;8.55;;
52136;SDS011;69622;49.570;10.986;2024-03-02T06:51:56;17.77;;;7.80;;
52136;SDS011;69622;49.570;10.986;2024-03-02T06:54:57;17.70;;;7.47;;
52136;SDS011;69622;49.570;10.986;2024-03-02T06:57:59;20.42;;;9.38;;
52136;SDS011;69622;49.570;10.986;2024-03-02T07:01:01;23.15;;;7.80;;
52136;SDS011;69622;49.570;10.986;2024-03-02T07:04:02;18.77;;;8.35;;
52136;SDS011;69622;49.570;10.986;2024-03-02T07:07:04;21.63;;;10.07;;
52136;SDS011;69622;49.570;10.986;2024-03-02T07:10:06;23.20;;;9.52;;
52136;SDS011;69622;49.570;10.986;2024-03-02T07:13:08;24.23;;;10.18;;
52136;SDS011;69622;49.570;10.986;2024-03-02T07:16:10;20.25;;;8.70;;
52136;SDS011;69622;49.570;10.986;2024-03-02T07:19:11;21.05;;;9.75;;
52136;SDS011;69622;49.570;10.986;2024-03-02T07:22:13;25.20;;;10.38;;
52136;SDS011;69622;49.570;10.986;2024-03-02T07:25:15;19.70;;;9.77;;
52136;SDS011;69622;49.570;10.986;2024-03-02T07:28:19;24.30;;;8.90;;
52136;SDS011;69622;49.570;10.986;2024-03-02T07:31:20;18.85;;;8.40;;
52136;SDS011;69622;49.570;10.986;2024-03-02T07:34:22;21.15;;;9.40;;
52136;SDS011;69622;49.570;10.986;2024-03-02T07:37:23;20.88;;;10.13;;
52136;SDS011;69622;49.570;10.986;2024-03-02T07:40:25;22.08;;;10.20;;
52136;SDS011;69622;49.570;10.986;2024-03-02T07:43:26;18.95;;;8.52;;
52136;SDS011;69622;49.570;10.986;2024-03-02T07:46:28;22.90;;;10.23;;
52136;SDS011;69622;49.570;10.986;2024-03-02T07:49:30;22.60;;;8.43;;
52136;SDS011;69622;49.570;10.986;2024-03-02T07:52:31;20.67;;;9.68;;
52136;SDS011;69622;49.570;10.986;2024-03-02T07:55:34;18.13;;;8.40;;
52136;SDS011;69622;49.570;10.986;2024-03-02T07:58:36;22.42;;;9.65;;
52136;SDS011;69622;49.570;10.986;2024-03-02T08:01:38;18.70;;;8.70;;
52136;SDS011;69622;49.570;10.986;2024-03-02T08:04:40;21.48;;;8.98;;
52136;SDS011;69622;49.570;10.986;2024-03-02T08:07:43;22.92;;;9.65;;
52136;SDS011;69622;49.570;10.986;2024-03-02T08:10:45;17.35;;;9.18;;
52136;SDS011;69622;49.570;10.986;2024-03-02T08:13:47;18.55;;;8.38;;
52136;SDS011;69622;49.570;10.986;2024-03-02T08:16:49;17.55;;;8.68;;
52136;SDS011;69622;49.570;10.986;2024-03-02T08:19:50;18.88;;;7.78;;
52136;SDS011;69622;49.570;10.986;2024-03-02T08:22:52;18.50;;;9.45;;
52136;SDS011;69622;49.570;10.986;2024-03-02T08:25:56;20.70;;;8.80;;
52136;SDS011;69622;49.570;10.986;2024-03-02T08:29:00;19.95;;;9.48;;
52136;SDS011;69622;49.570;10.986;2024-03-02T08:32:05;19.58;;;8.35;;
52136;SDS011;69622;49.570;10.986;2024-03-02T08:35:07;17.00;;;7.97;;
52136;SDS011;69622;49.570;10.986;2024-03-02T08:38:08;18.40;;;8.38;;
52136;SDS011;69622;49.570;10.986;2024-03-02T08:41:10;23.35;;;8.63;;
52136;SDS011;69622;49.570;10.986;2024-03-02T08:44:14;20.02;;;9.05;;
52136;SDS011;69622;49.570;10.986;2024-03-02T08:47:16;19.75;;;9.13;;
52136;SDS011;69622;49.570;10.986;2024-03-02T08:50:18;16.00;;;7.43;;
52136;SDS011;69622;49.570;10.986;2024-03-02T08:53:19;16.67;;;8.63;;
52136;SDS011;69622;49.570;10.986;2024-03-02T08:56:21;18.13;;;7.95;;
52136;SDS011;69622;49.570;10.986;2024-03-02T08:59:24;16.30;;;7.82;;
52136;SDS011;69622;49.570;10.986;2024-03-02T09:02:28;16.02;;;7.22;;
52136;SDS011;69622;49.570;10.986;2024-03-02T09:05:30;15.38;;;7.78;;
52136;SDS011;69622;49.570;10.986;2024-03-02T09:08:32;13.73;;;6.47;;
52136;SDS011;69622;49.570;10.986;2024-03-02T09:11:33;18.50;;;8.35;;
52136;SDS011;69622;49.570;10.986;2024-03-02T09:14:35;16.42;;;7.10;;
52136;SDS011;69622;49.570;10.986;2024-03-02T09:17:38;14.32;;;7.03;;
52136;SDS011;69622;49.570;10.986;2024-03-02T09:20:39;14.38;;;5.82;;
52136;SDS011;69622;49.570;10.986;2024-03-02T09:23:41;9.70;;;5.65;;
52136;SDS011;69622;49.570;10.986;2024-03-02T09:26:42;11.82;;;5.72;;
52136;SDS011;69622;49.570;10.986;2024-03-02T09:29:44;11.18;;;5.85;;
52136;SDS011;69622;49.570;10.986;2024-03-02T09:32:46;12.35;;;6.10;;
52136;SDS011;69622;49.570;10.986;2024-03-02T09:35:50;13.25;;;5.32;;
52136;SDS011;69622;49.570;10.986;2024-03-02T09:38:54;9.43;;;4.60;;
52136;SDS011;69622;49.570;10.986;2024-03-02T09:41:56;10.52;;;5.07;;
52136;SDS011;69622;49.570;10.986;2024-03-02T09:44:58;14.23;;;6.30;;
52136;SDS011;69622;49.570;10.986;2024-03-02T09:48:00;12.55;;;6.30;;
52136;SDS011;69622;49.570;10.986;2024-03-02T09:51:01;11.52;;;6.00;;
52136;SDS011;69622;49.570;10.986;2024-03-02T09:54:05;9.77;;;5.10;;
52136;SDS011;69622;49.570;10.986;2024-03-02T09:57:21;10.23;;;4.43;;
52136;SDS011;69622;49.570;10.986;2024-03-02T10:00:23;7.30;;;3.90;;
52136;SDS011;69622;49.570;10.986;2024-03-02T10:03:25;9.90;;;3.92;;
52136;SDS011;69622;49.570;10.986;2024-03-02T10:06:28;7.75;;;4.10;;
52136;SDS011;69622;49.570;10.986;2024-03-02T10:09:30;8.57;;;4.13;;
52136;SDS011;69622;49.570;10.986;2024-03-02T10:12:31;7.65;;;3.63;;
52136;SDS011;69622;49.570;10.986;2024-03-02T10:15:33;10.70;;;4.00;;
52136;SDS011;69622;49.570;10.986;2024-03-02T10:18:35;6.00;;;3.30;;
52136;SDS011;69622;49.570;10.986;2024-03-02T10:21:39;6.07;;;3.25;;
52136;SDS011;69622;49.570;10.986;2024-03-02T10:24:43;7.75;;;3.80;;
52136;SDS011;69622;49.570;10.986;2024-03-02T10:27:49;9.85;;;4.15;;
52136;SDS011;69622;49.570;10.986;2024-03-02T10:30:51;5.38;;;3.45;;
52136;SDS011;69622;49.570;10.986;2024-03-02T10:33:54;6.70;;;3.55;;
52136;SDS011;69622;49.570;10.986;2024-03-02T10:36:56;6.80;;;3.70;;
52136;SDS011;69622;49.570;10.986;2024-03-02T10:40:00;12.27;;;4.32;;
52136;SDS011;69622;49.570;10.986;2024-03-02T10:43:06;8.75;;;4.55;;
52136;SDS011;69622;49.570;10.986;2024-03-02T10:46:09;8.38;;;4.63;;
52136;SDS011;69622;49.570;10.986;2024-03-02T10:49:12;6.60;;;3.72;;
52136;SDS011;69622;49.570;10.986;2024-03-02T10:52:14;8.93;;;4.50;;
52136;SDS011;69622;49.570;10.986;2024-03-02T10:55:16;6.95;;;4.50;;
52136;SDS011;69622;49.570;10.986;2024-03-02T10:58:18;9.30;;;4.32;;
52136;SDS011;69622;49.570;10.986;2024-03-02T11:01:20;7.63;;;3.47;;
52136;SDS011;69622;49.570;10.986;2024-03-02T11:04:22;6.85;;;3.78;;
52136;SDS011;69622;49.570;10.986;2024-03-02T11:07:25;7.85;;;4.35;;
52136;SDS011;69622;49.570;10.986;2024-03-02T11:10:31;7.88;;;3.97;;
52136;SDS011;69622;49.570;10.986;2024-03-02T11:13:36;7.72;;;3.78;;
52136;SDS011;69622;49.570;10.986;2024-03-02T11:16:42;6.95;;;3.60;;
52136;SDS011;69622;49.570;10.986;2024-03-02T11:19:47;9.23;;;4.28;;
52136;SDS011;69622;49.570;10.986;2024-03-02T11:22:49;6.72;;;3.28;;
52136;SDS011;69622;49.570;10.986;2024-03-02T11:25:51;6.82;;;3.65;;
52136;SDS011;69622;49.570;10.986;2024-03-02T11:28:52;8.20;;;4.30;;
52136;SDS011;69622;49.570;10.986;2024-03-02T11:31:57;7.45;;;4.30;;
52136;SDS011;69622;49.570;10.986;2024-03-02T11:35:00;8.90;;;5.07;;
52136;SDS011;69622;49.570;10.986;2024-03-02T11:38:03;10.02;;;5.07;;
52136;SDS011;69622;49.570;10.986;2024-03-02T11:41:06;9.07;;;4.63;;
52136;SDS011;69622;49.570;10.986;2024-03-02T11:44:10;8.77;;;5.00;;
52136;SDS011;69622;49.570;10.986;2024-03-02T11:47:14;9.73;;;5.47;;
52136;SDS011;69622;49.570;10.986;2024-03-02T11:50:29;10.43;;;6.43;;
52136;SDS011;69622;49.570;10.986;2024-03-02T11:53:40;9.10;;;5.53;;
52136;SDS011;69622;49.570;10.986;2024-03-02T11:56:44;9.43;;;4.85;;
52136;SDS011;69622;49.570;10.986;2024-03-02T11:59:46;10.32;;;5.95;;
52136;SDS011;69622;49.570;10.986;2024-03-02T12:02:48;11.68;;;6.47;;
52136;SDS011;69622;49.570;10.986;2024-03-02T12:06:01;8.93;;;5.60;;
52136;SDS011;69622;49.570;10.986;2024-03-02T12:09:03;8.07;;;4.05;;
52136;SDS011;69622;49.570;10.986;2024-03-02T12:12:09;11.20;;;5.80;;
52136;SDS011;69622;49.570;10.986;2024-03-02T12:18:12;8.32;;;4.80;;
52136;SDS011;69622;49.570;10.986;2024-03-02T12:21:13;7.38;;;3.75;;
52136;SDS011;69622;49.570;10.986;2024-03-02T12:24:15;7.68;;;3.53;;
52136;SDS011;69622;49.570;10.986;2024-03-02T12:27:16;7.93;;;4.05;;
52136;SDS011;69622;49.570;10.986;2024-03-02T12:30:20;7.82;;;3.92;;
52136;SDS011;69622;49.570;10.986;2024-03-02T12:33:22;6.53;;;3.72;;
52136;SDS011;69622;49.570;10.986;2024-03-02T12:36:24;7.88;;;4.03;;
52136;SDS011;69622;49.570;10.986;2024-03-02T12:39:26;11.05;;;4.63;;
52136;SDS011;69622;49.570;10.986;2024-03-02T12:42:28;8.20;;;4.65;;
52136;SDS011;69622;49.570;10.986;2024-03-02T12:45:29;9.48;;;4.97;;
52136;SDS011;69622;49.570;10.986;2024-03-02T12:48:31;10.32;;;5.07;;
52136;SDS011;69622;49.570;10.986;2024-03-02T12:51:32;10.13;;;5.28;;
52136;SDS011;69622;49.570;10.986;2024-03-02T12:54:34;10.68;;;6.05;;
52136;SDS011;69622;49.570;10.986;2024-03-02T12:57:36;9.88;;;5.15;;
52136;SDS011;69622;49.570;10.986;2024-03-02T13:00:39;8.82;;;4.93;;
52136;SDS011;69622;49.570;10.986;2024-03-02T13:03:41;10.25;;;6.00;;
52136;SDS011;69622;49.570;10.986;2024-03-02T13:06:42;10.95;;;5.45;;
52136;SDS011;69622;49.570;10.986;2024-03-02T13:09:45;12.30;;;6.38;;
52136;SDS011;69622;49.570;10.986;2024-03-02T13:12:47;11.75;;;5.95;;
52136;SDS011;69622;49.570;10.986;2024-03-02T13:15:49;13.65;;;6.90;;
52136;SDS011;69622;49.570;10.986;2024-03-02T13:18:50;13.43;;;7.25;;
52136;SDS011;69622;49.570;10.986;2024-03-02T13:21:52;13.07;;;6.40;;
52136;SDS011;69622;49.570;10.986;2024-03-02T13:24:53;10.57;;;6.22;;
52136;SDS011;69622;49.570;10.986;2024-03-02T13:27:59;17.45;;;6.55;;
52136;SDS011;69622;49.570;10.986;2024-03-02T13:31:00;13.13;;;6.65;;
52136;SDS011;69622;49.570;10.986;2024-03-02T13:34:02;15.90;;;6.93;;
52136;SDS011;69622;49.570;10.986;2024-03-02T13:37:04;11.52;;;6.35;;
52136;SDS011;69622;49.570;10.986;2024-03-02T13:40:07;11.32;;;6.32;;
52136;SDS011;69622;49.570;10.986;2024-03-02T13:43:14;10.52;;;6.88;;
52136;SDS011;69622;49.570;10.986;2024-03-02T13:46:15;11.13;;;6.35;;
52136;SDS011;69622;49.570;10.986;2024-03-02T13:49:17;12.75;;;7.10;;
52136;SDS011;69622;49.570;10.986;2024-03-02T13:52:18;12.25;;;6.80;;
52136;SDS011;69622;49.570;10.986;2024-03-02T13:55:21;10.95;;;6.25;;
52136;SDS011;69622;49.570;10.986;2024-03-02T13:58:23;9.57;;;5.55;;
52136;SDS011;69622;49.570;10.986;2024-03-02T14:01:24;11.07;;;4.95;;
52136;SDS011;69622;49.570;10.986;2024-03-02T14:04:26;8.40;;;4.40;;
52136;SDS011;69622;49.570;10.986;2024-03-02T14:07:28;8.93;;;5.13;;
52136;SDS011;69622;49.570;10.986;2024-03-02T14:10:29;9.40;;;4.55;;
52136;SDS011;69622;49.570;10.986;2024-03-02T14:13:30;7.78;;;4.50;;
52136;SDS011;69622;49.570;10.986;2024-03-02T14:16:32;10.70;;;3.75;;
52136;SDS011;69622;49.570;10.986;2024-03-02T14:19:33;8.43;;;4.32;;
52136;SDS011;69622;49.570;10.986;2024-03-02T14:22:36;9.93;;;4.63;;
52136;SDS011;69622;49.570;10.986;2024-03-02T14:25:38;6.65;;;4.00;;
52136;SDS011;69622;49.570;10.986;2024-03-02T14:28:40;7.55;;;3.63;;
52136;SDS011;69622;49.570;10.986;2024-03-02T14:31:51;6.13;;;2.97;;
52136;SDS011;69622;49.570;10.986;2024-03-02T14:34:53;5.90;;;2.72;;
52136;SDS011;69622;49.570;10.986;2024-03-02T14:37:54;8.55;;;3.95;;
52136;SDS011;69622;49.570;10.986;2024-03-02T14:40:58;4.97;;;2.03;;
52136;SDS011;69622;49.570;10.986;2024-03-02T14:44:00;6.43;;;3.35;;
52136;SDS011;69622;49.570;10.986;2024-03-02T14:47:01;6.72;;;3.58;;
52136;SDS011;69622;49.570;10.986;2024-03-02T14:50:05;5.70;;;2.97;;
52136;SDS011;69622;49.570;10.986;2024-03-02T14:53:11;7.57;;;3.35;;
52136;SDS011;69622;49.570;10.986;2024-03-02T14:56:13;7.03;;;3.33;;
52136;SDS011;69622;49.570;10.986;2024-03-02T14:59:15;7.68;;;3.58;;
52136;SDS011;69622;49.570;10.986;2024-03-02T15:02:16;7.80;;;3.60;;
52136;SDS011;69622;49.570;10.986;2024-03-02T15:05:18;8.32;;;3.92;;
52136;SDS011;69622;49.570;10.986;2024-03-02T15:08:20;10.77;;;4.70;;
52136;SDS011;69622;49.570;10.986;2024-03-02T15:11:21;11.90;;;4.70;;
52136;SDS011;69622;49.570;10.986;2024-03-02T15:14:24;9.50;;;5.38;;
52136;SDS011;69622;49.570;10.986;2024-03-02T15:17:25;11.88;;;5.28;;
52136;SDS011;69622;49.570;10.986;2024-03-02T15:20:27;14.27;;;5.80;;
52136;SDS011;69622;49.570;10.986;2024-03-02T15:23:29;14.02;;;6.30;;
52136;SDS011;69622;49.570;10.986;2024-03-02T15:26:31;12.07;;;5.95;;
52136;SDS011;69622;49.570;10.986;2024-03-02T15:29:32;10.70;;;4.68;;
52136;SDS011;69622;49.570;10.986;2024-03-02T15:32:34;11.50;;;5.28;;
52136;SDS011;69622;49.570;10.986;2024-03-02T15:35:36;11.00;;;4.93;;
52136;SDS011;69622;49.570;10.986;2024-03-02T15:38:38;11.00;;;6.18;;
52136;SDS011;69622;49.570;10.986;2024-03-02T15:41:43;12.85;;;5.38;;
52136;SDS011;69622;49.570;10.986;2024-03-02T15:44:45;11.95;;;5.68;;
52136;SDS011;69622;49.570;10.986;2024-03-02T15:47:47;11.80;;;5.35;;
52136;SDS011;69622;49.570;10.986;2024-03-02T15:50:48;9.55;;;5.03;;
52136;SDS011;69622;49.570;10.986;2024-03-02T15:53:51;12.30;;;5.07;;
52136;SDS011;69622;49.570;10.986;2024-03-02T15:56:53;11.40;;;4.82;;
52136;SDS011;69622;49.570;10.986;2024-03-02T15:59:54;11.30;;;4.32;;
52136;SDS011;69622;49.570;10.986;2024-03-02T16:02:56;10.93;;;5.25;;
52136;SDS011;69622;49.570;10.986;2024-03-02T16:05:58;9.55;;;5.30;;
52136;SDS011;69622;49.570;10.986;2024-03-02T16:09:00;10.15;;;4.55;;
52136;SDS011;69622;49.570;10.986;2024-03-02T16:12:02;15.85;;;6.45;;
52136;SDS011;69622;49.570;10.986;2024-03-02T16:15:04;11.25;;;4.38;;
52136;SDS011;69622;49.570;10.986;2024-03-02T16:18:06;10.32;;;5.28;;
52136;SDS011;69622;49.570;10.986;2024-03-02T16:21:08;13.05;;;5.10;;
52136;SDS011;69622;49.570;10.986;2024-03-02T16:24:10;10.52;;;5.50;;
52136;SDS011;69622;49.570;10.986;2024-03-02T16:27:11;11.70;;;5.47;;
52136;SDS011;69622;49.570;10.986;2024-03-02T16:30:13;10.75;;;5.30;;
52136;SDS011;69622;49.570;10.986;2024-03-02T16:33:15;10.77;;;5.20;;
52136;SDS011;69622;49.570;10.986;2024-03-02T16:36:18;11.57;;;5.22;;
52136;SDS011;69622;49.570;10.986;2024-03-02T16:39:21;13.60;;;5.43;;
52136;SDS011;69622;49.570;10.986;2024-03-02T16:42:23;10.80;;;5.20;;
52136;SDS011;69622;49.570;10.986;2024-03-02T16:45:25;12.32;;;6.43;;
52136;SDS011;69622;49.570;10.986;2024-03-02T16:48:27;10.90;;;4.93;;
52136;SDS011;69622;49.570;10.986;2024-03-02T16:51:28;13.35;;;5.47;;
52136;SDS011;69622;49.570;10.986;2024-03-02T16:54:30;13.27;;;5.80;;
52136;SDS011;69622;49.570;10.986;2024-03-02T16:57:31;10.55;;;5.22;;
52136;SDS011;69622;49.570;10.986;2024-03-02T17:00:33;13.13;;;6.20;;
52136;SDS011;69622;49.570;10.986;2024-03-02T17:03:34;18.05;;;6.78;;
52136;SDS011;69622;49.570;10.986;2024-03-02T17:06:36;15.20;;;6.90;;
52136;SDS011;69622;49.570;10.986;2024-03-02T17:09:38;12.13;;;6.50;;
52136;SDS011;69622;49.570;10.986;2024-03-02T17:12:39;13.68;;;6.13;;
52136;SDS011;69622;49.570;10.986;2024-03-02T17:15:41;13.32;;;5.75;;
52136;SDS011;69622;49.570;10.986;2024-03-02T17:18:43;14.82;;;6.15;;
52136;SDS011;69622;49.570;10.986;2024-03-02T17:21:45;12.48;;;5.78;;
52136;SDS011;69622;49.570;10.986;2024-03-02T17:24:46;14.20;;;6.90;;
52136;SDS011;69622;49.570;10.986;2024-03-02T17:27:48;12.95;;;6.38;;
52136;SDS011;69622;49.570;10.986;2024-03-02T17:30:49;14.93;;;6.60;;
52136;SDS011;69622;49.570;10.986;2024-03-02T17:33:51;15.10;;;6.28;;
52136;SDS011;69622;49.570;10.986;2024-03-02T17:36:53;14.70;;;6.32;;
52136;SDS011;69622;49.570;10.986;2024-03-02T17:39:54;15.88;;;6.47;;
52136;SDS011;69622;49.570;10.986;2024-03-02T17:42:56;11.93;;;5.97;;
52136;SDS011;69622;49.570;10.986;2024-03-02T17:45:58;13.95;;;6.32;;
52136;SDS011;69622;49.570;10.986;2024-03-02T17:49:00;16.80;;;7.05;;
52136;SDS011;69622;49.570;10.986;2024-03-02T17:52:02;18.55;;;9.00;;